sensor_id;sensor_type;location;lat;lon;timestamp;P1;durP1;ratioP1;P2;durP2;ratioP2
75912;SDS011;64592;52.168;21.040;2023-08-24T00:04:37;5.05;;;3.40;;
75912;SDS011;64592;52.168;21.040;2023-08-24T00:09:39;5.82;;;3.60;;
75912;SDS011;64592;52.168;21.040;2023-08-24T00:14:41;6.32;;;3.78;;
75912;SDS011;64592;52.168;21.040;2023-08-24T00:19:44;4.50;;;3.50;;
75912;SDS011;64592;52.168;21.040;2023-08-24T00:24:46;5.60;;;3.80;;
75912;SDS011;64592;52.168;21.040;2023-08-24T00:29:48;5.88;;;3.40;;
75912;SDS011;64592;52.168;21.040;2023-08-24T00:34:51;9.48;;;5.07;;
75912;SDS011;64592;52.168;21.040;2023-08-24T00:39:53;7.85;;;3.47;;
75912;SDS011;64592;52.168;21.040;2023-08-24T00:44:55;5.38;;;3.80;;
75912;SDS011;64592;52.168;21.040;2023-08-24T00:49:58;5.65;;;3.80;;
75912;SDS011;64592;52.168;21.040;2023-08-24T00:55:01;8.02;;;4.00;;
75912;SDS011;64592;52.168;21.040;2023-08-24T01:00:03;5.63;;;3.67;;
75912;SDS011;64592;52.168;21.040;2023-08-24T01:05:10;5.47;;;3.58;;
75912;SDS011;64592;52.168;21.040;2023-08-24T01:10:12;5.68;;;4.20;;
75912;SDS011;64592;52.168;21.040;2023-08-24T01:15:15;5.35;;;4.03;;
75912;SDS011;64592;52.168;21.040;2023-08-24T01:20:25;6.80;;;3.53;;
75912;SDS011;64592;52.168;21.040;2023-08-24T01:25:32;5.38;;;3.50;;
75912;SDS011;64592;52.168;21.040;2023-08-24T01:30:40;6.28;;;3.97;;
75912;SDS011;64592;52.168;21.040;2023-08-24T01:35:42;6.00;;;3.83;;
75912;SDS011;64592;52.168;21.040;2023-08-24T01:40:48;5.45;;;3.97;;
75912;SDS011;64592;52.168;21.040;2023-08-24T01:45:57;7.10;;;4.28;;
75912;SDS011;64592;52.168;21.040;2023-08-24T01:50:59;5.13;;;3.60;;
75912;SDS011;64592;52.168;21.040;2023-08-24T01:56:07;6.00;;;3.85;;
75912;SDS011;64592;52.168;21.040;2023-08-24T02:01:11;5.78;;;3.63;;
75912;SDS011;64592;52.168;21.040;2023-08-24T02:06:13;7.72;;;4.05;;
75912;SDS011;64592;52.168;21.040;2023-08-24T02:11:14;5.55;;;3.55;;
75912;SDS011;64592;52.168;21.040;2023-08-24T02:16:17;6.28;;;3.83;;
75912;SDS011;64592;52.168;21.040;2023-08-24T02:21:19;7.05;;;4.38;;
75912;SDS011;64592;52.168;21.040;2023-08-24T02:26:21;5.68;;;3.58;;
75912;SDS011;64592;52.168;21.040;2023-08-24T02:31:24;5.20;;;3.45;;
75912;SDS011;64592;52.168;21.040;2023-08-24T02:36:26;6.03;;;3.70;;
75912;SDS011;64592;52.168;21.040;2023-08-24T02:41:28;4.50;;;3.67;;
75912;SDS011;64592;52.168;21.040;2023-08-24T02:46:31;5.65;;;4.03;;
75912;SDS011;64592;52.168;21.040;2023-08-24T02:51:33;6.13;;;3.90;;
75912;SDS011;64592;52.168;21.040;2023-08-24T02:56:35;8.13;;;4.07;;
75912;SDS011;64592;52.168;21.040;2023-08-24T03:01:38;5.38;;;3.83;;
75912;SDS011;64592;52.168;21.040;2023-08-24T03:06:43;6.32;;;3.88;;
75912;SDS011;64592;52.168;21.040;2023-08-24T03:11:44;6.93;;;4.05;;
75912;SDS011;64592;52.168;21.040;2023-08-24T03:16:47;4.85;;;3.70;;
75912;SDS011;64592;52.168;21.040;2023-08-24T03:21:50;7.38;;;3.75;;
75912;SDS011;64592;52.168;21.040;2023-08-24T03:26:51;9.27;;;4.47;;
75912;SDS011;64592;52.168;21.040;2023-08-24T03:31:54;8.50;;;3.72;;
75912;SDS011;64592;52.168;21.040;2023-08-24T03:36:56;6.85;;;4.22;;
75912;SDS011;64592;52.168;21.040;2023-08-24T03:41:58;6.15;;;3.88;;
75912;SDS011;64592;52.168;21.040;2023-08-24T03:47:01;5.82;;;3.60;;
75912;SDS011;64592;52.168;21.040;2023-08-24T03:52:03;6.82;;;3.58;;
75912;SDS011;64592;52.168;21.040;2023-08-24T03:57:05;5.47;;;3.55;;
75912;SDS011;64592;52.168;21.040;2023-08-24T04:02:07;7.50;;;3.83;;
75912;SDS011;64592;52.168;21.040;2023-08-24T04:07:09;7.65;;;5.05;;
75912;SDS011;64592;52.168;21.040;2023-08-24T04:12:11;4.68;;;3.78;;
75912;SDS011;64592;52.168;21.040;2023-08-24T04:17:14;7.40;;;3.90;;
75912;SDS011;64592;52.168;21.040;2023-08-24T04:22:15;5.38;;;4.10;;
75912;SDS011;64592;52.168;21.040;2023-08-24T04:27:17;5.65;;;3.92;;
75912;SDS011;64592;52.168;21.040;2023-08-24T04:32:21;8.38;;;4.10;;
75912;SDS011;64592;52.168;21.040;2023-08-24T04:37:23;6.57;;;4.80;;
75912;SDS011;64592;52.168;21.040;2023-08-24T04:42:24;6.78;;;4.32;;
75912;SDS011;64592;52.168;21.040;2023-08-24T04:47:27;5.65;;;3.75;;
75912;SDS011;64592;52.168;21.040;2023-08-24T04:52:29;6.28;;;3.75;;
75912;SDS011;64592;52.168;21.040;2023-08-24T04:57:31;7.85;;;4.20;;
75912;SDS011;64592;52.168;21.040;2023-08-24T05:02:34;4.63;;;4.03;;
75912;SDS011;64592;52.168;21.040;2023-08-24T05:07:36;10.30;;;4.55;;
75912;SDS011;64592;52.168;21.040;2023-08-24T05:12:39;7.15;;;3.67;;
75912;SDS011;64592;52.168;21.040;2023-08-24T05:17:42;5.15;;;3.65;;
75912;SDS011;64592;52.168;21.040;2023-08-24T05:22:43;6.53;;;3.85;;
75912;SDS011;64592;52.168;21.040;2023-08-24T05:27:45;6.03;;;4.00;;
75912;SDS011;64592;52.168;21.040;2023-08-24T05:32:48;5.47;;;3.65;;
75912;SDS011;64592;52.168;21.040;2023-08-24T05:37:50;6.97;;;3.00;;
75912;SDS011;64592;52.168;21.040;2023-08-24T05:42:52;8.00;;;4.18;;
75912;SDS011;64592;52.168;21.040;2023-08-24T05:47:55;5.90;;;4.43;;
75912;SDS011;64592;52.168;21.040;2023-08-24T05:52:56;8.32;;;3.63;;
75912;SDS011;64592;52.168;21.040;2023-08-24T05:57:58;6.45;;;3.53;;
75912;SDS011;64592;52.168;21.040;2023-08-24T06:03:01;8.70;;;4.10;;
75912;SDS011;64592;52.168;21.040;2023-08-24T06:08:04;7.75;;;4.78;;
75912;SDS011;64592;52.168;21.040;2023-08-24T06:13:06;5.45;;;3.33;;
75912;SDS011;64592;52.168;21.040;2023-08-24T06:18:09;5.15;;;3.25;;
75912;SDS011;64592;52.168;21.040;2023-08-24T06:23:11;4.88;;;4.03;;
75912;SDS011;64592;52.168;21.040;2023-08-24T06:28:13;11.13;;;3.88;;
75912;SDS011;64592;52.168;21.040;2023-08-24T06:33:17;6.20;;;3.53;;
75912;SDS011;64592;52.168;21.040;2023-08-24T06:38:20;10.68;;;3.78;;
75912;SDS011;64592;52.168;21.040;2023-08-24T06:43:22;6.88;;;4.07;;
75912;SDS011;64592;52.168;21.040;2023-08-24T06:48:25;4.90;;;3.95;;
75912;SDS011;64592;52.168;21.040;2023-08-24T06:53:27;5.40;;;4.60;;
75912;SDS011;64592;52.168;21.040;2023-08-24T06:58:28;7.93;;;3.55;;
75912;SDS011;64592;52.168;21.040;2023-08-24T07:03:31;7.65;;;3.60;;
75912;SDS011;64592;52.168;21.040;2023-08-24T07:08:34;4.85;;;2.97;;
75912;SDS011;64592;52.168;21.040;2023-08-24T07:13:35;5.18;;;3.20;;
75912;SDS011;64592;52.168;21.040;2023-08-24T07:18:39;6.07;;;3.25;;
75912;SDS011;64592;52.168;21.040;2023-08-24T07:23:40;4.20;;;3.28;;
75912;SDS011;64592;52.168;21.040;2023-08-24T07:28:42;5.90;;;3.20;;
75912;SDS011;64592;52.168;21.040;2023-08-24T07:33:45;7.28;;;3.60;;
75912;SDS011;64592;52.168;21.040;2023-08-24T07:38:46;5.35;;;2.97;;
75912;SDS011;64592;52.168;21.040;2023-08-24T07:43:48;4.40;;;2.97;;
75912;SDS011;64592;52.168;21.040;2023-08-24T07:48:51;7.53;;;3.55;;
75912;SDS011;64592;52.168;21.040;2023-08-24T07:53:53;8.32;;;3.30;;
75912;SDS011;64592;52.168;21.040;2023-08-24T07:58:55;5.60;;;3.55;;
75912;SDS011;64592;52.168;21.040;2023-08-24T08:03:58;5.47;;;3.83;;
75912;SDS011;64592;52.168;21.040;2023-08-24T08:09:00;3.67;;;2.85;;
75912;SDS011;64592;52.168;21.040;2023-08-24T08:14:02;5.60;;;3.38;;
75912;SDS011;64592;52.168;21.040;2023-08-24T08:19:06;5.07;;;2.83;;
75912;SDS011;64592;52.168;21.040;2023-08-24T08:24:07;4.82;;;2.70;;
75912;SDS011;64592;52.168;21.040;2023-08-24T08:29:09;6.80;;;3.25;;
75912;SDS011;64592;52.168;21.040;2023-08-24T08:34:12;3.58;;;2.70;;
75912;SDS011;64592;52.168;21.040;2023-08-24T08:39:14;6.10;;;2.80;;
75912;SDS011;64592;52.168;21.040;2023-08-24T08:44:17;4.40;;;2.90;;
75912;SDS011;64592;52.168;21.040;2023-08-24T08:49:21;4.97;;;2.60;;
75912;SDS011;64592;52.168;21.040;2023-08-24T08:54:23;4.57;;;2.92;;
75912;SDS011;64592;52.168;21.040;2023-08-24T08:59:25;5.32;;;3.10;;
75912;SDS011;64592;52.168;21.040;2023-08-24T09:04:31;3.60;;;2.90;;
75912;SDS011;64592;52.168;21.040;2023-08-24T09:09:33;4.80;;;2.88;;
75912;SDS011;64592;52.168;21.040;2023-08-24T09:14:35;4.60;;;2.75;;
75912;SDS011;64592;52.168;21.040;2023-08-24T09:19:38;3.60;;;2.38;;
75912;SDS011;64592;52.168;21.040;2023-08-24T09:24:40;3.25;;;2.42;;
75912;SDS011;64592;52.168;21.040;2023-08-24T09:29:41;3.78;;;2.75;;
75912;SDS011;64592;52.168;21.040;2023-08-24T09:34:45;3.65;;;2.50;;
75912;SDS011;64592;52.168;21.040;2023-08-24T09:39:46;4.60;;;2.97;;
75912;SDS011;64592;52.168;21.040;2023-08-24T09:44:49;3.70;;;2.88;;
75912;SDS011;64592;52.168;21.040;2023-08-24T09:49:52;4.43;;;2.83;;
75912;SDS011;64592;52.168;21.040;2023-08-24T09:54:53;3.78;;;2.53;;
75912;SDS011;64592;52.168;21.040;2023-08-24T09:59:55;6.20;;;2.78;;
75912;SDS011;64592;52.168;21.040;2023-08-24T10:04:59;5.35;;;3.10;;
75912;SDS011;64592;52.168;21.040;2023-08-24T10:10:03;5.93;;;2.97;;
75912;SDS011;64592;52.168;21.040;2023-08-24T10:15:10;5.18;;;3.28;;
75912;SDS011;64592;52.168;21.040;2023-08-24T10:20:13;4.68;;;2.92;;
75912;SDS011;64592;52.168;21.040;2023-08-24T10:25:16;6.13;;;2.88;;
75912;SDS011;64592;52.168;21.040;2023-08-24T10:30:18;4.80;;;2.97;;
75912;SDS011;64592;52.168;21.040;2023-08-24T10:35:22;6.85;;;3.88;;
75912;SDS011;64592;52.168;21.040;2023-08-24T10:40:32;5.85;;;3.08;;
75912;SDS011;64592;52.168;21.040;2023-08-24T10:51:18;13.70;;;3.30;;
75912;SDS011;64592;52.168;21.040;2023-08-24T11:01:31;5.07;;;3.15;;
75912;SDS011;64592;52.168;21.040;2023-08-24T11:06:35;4.05;;;2.63;;
75912;SDS011;64592;52.168;21.040;2023-08-24T11:11:56;5.50;;;2.58;;
75912;SDS011;64592;52.168;21.040;2023-08-24T11:17:01;3.20;;;2.38;;
75912;SDS011;64592;52.168;21.040;2023-08-24T11:22:20;5.65;;;2.67;;
75912;SDS011;64592;52.168;21.040;2023-08-24T11:27:22;4.85;;;3.08;;
75912;SDS011;64592;52.168;21.040;2023-08-24T11:32:24;3.88;;;2.80;;
75912;SDS011;64592;52.168;21.040;2023-08-24T11:37:28;3.97;;;2.78;;
75912;SDS011;64592;52.168;21.040;2023-08-24T11:42:35;5.80;;;2.88;;
75912;SDS011;64592;52.168;21.040;2023-08-24T11:47:37;4.32;;;2.97;;
75912;SDS011;64592;52.168;21.040;2023-08-24T11:52:40;5.25;;;2.88;;
75912;SDS011;64592;52.168;21.040;2023-08-24T11:57:42;4.45;;;3.20;;
75912;SDS011;64592;52.168;21.040;2023-08-24T12:02:44;5.80;;;2.97;;
75912;SDS011;64592;52.168;21.040;2023-08-24T12:07:48;4.72;;;3.25;;
75912;SDS011;64592;52.168;21.040;2023-08-24T12:12:49;3.95;;;2.90;;
75912;SDS011;64592;52.168;21.040;2023-08-24T12:18:09;7.13;;;3.10;;
75912;SDS011;64592;52.168;21.040;2023-08-24T12:23:13;11.10;;;3.95;;
75912;SDS011;64592;52.168;21.040;2023-08-24T12:28:15;3.78;;;2.92;;
75912;SDS011;64592;52.168;21.040;2023-08-24T12:33:23;3.80;;;2.72;;
75912;SDS011;64592;52.168;21.040;2023-08-24T12:38:27;4.38;;;2.85;;
75912;SDS011;64592;52.168;21.040;2023-08-24T12:43:28;6.00;;;3.10;;
75912;SDS011;64592;52.168;21.040;2023-08-24T12:48:30;6.25;;;3.17;;
75912;SDS011;64592;52.168;21.040;2023-08-24T12:53:33;6.65;;;3.13;;
75912;SDS011;64592;52.168;21.040;2023-08-24T12:58:35;5.90;;;3.25;;
75912;SDS011;64592;52.168;21.040;2023-08-24T13:03:36;4.80;;;2.70;;
75912;SDS011;64592;52.168;21.040;2023-08-24T13:08:40;4.20;;;2.95;;
75912;SDS011;64592;52.168;21.040;2023-08-24T13:13:42;4.88;;;2.88;;
75912;SDS011;64592;52.168;21.040;2023-08-24T13:18:45;4.20;;;2.30;;
75912;SDS011;64592;52.168;21.040;2023-08-24T13:23:49;5.45;;;2.88;;
75912;SDS011;64592;52.168;21.040;2023-08-24T13:28:50;9.10;;;3.03;;
75912;SDS011;64592;52.168;21.040;2023-08-24T13:33:53;3.92;;;2.35;;
75912;SDS011;64592;52.168;21.040;2023-08-24T13:38:56;4.85;;;2.80;;
75912;SDS011;64592;52.168;21.040;2023-08-24T13:43:57;4.75;;;2.65;;
75912;SDS011;64592;52.168;21.040;2023-08-24T13:48:59;3.83;;;3.05;;
75912;SDS011;64592;52.168;21.040;2023-08-24T13:54:02;4.68;;;3.00;;
75912;SDS011;64592;52.168;21.040;2023-08-24T13:59:04;4.97;;;3.00;;
75912;SDS011;64592;52.168;21.040;2023-08-24T14:04:06;4.90;;;3.13;;
75912;SDS011;64592;52.168;21.040;2023-08-24T14:09:09;6.18;;;3.13;;
75912;SDS011;64592;52.168;21.040;2023-08-24T14:14:11;5.40;;;2.85;;
75912;SDS011;64592;52.168;21.040;2023-08-24T14:19:12;5.65;;;3.60;;
75912;SDS011;64592;52.168;21.040;2023-08-24T14:24:15;5.95;;;3.53;;
75912;SDS011;64592;52.168;21.040;2023-08-24T14:29:17;6.30;;;3.25;;
75912;SDS011;64592;52.168;21.040;2023-08-24T14:34:19;6.93;;;3.05;;
75912;SDS011;64592;52.168;21.040;2023-08-24T14:39:22;4.03;;;3.00;;
75912;SDS011;64592;52.168;21.040;2023-08-24T14:44:23;6.78;;;3.53;;
75912;SDS011;64592;52.168;21.040;2023-08-24T14:49:25;3.80;;;3.10;;
75912;SDS011;64592;52.168;21.040;2023-08-24T14:54:28;5.50;;;3.33;;
75912;SDS011;64592;52.168;21.040;2023-08-24T14:59:30;5.47;;;3.10;;
75912;SDS011;64592;52.168;21.040;2023-08-24T15:04:32;4.93;;;3.10;;
75912;SDS011;64592;52.168;21.040;2023-08-24T15:09:35;6.13;;;3.00;;
75912;SDS011;64592;52.168;21.040;2023-08-24T15:14:36;3.63;;;2.75;;
75912;SDS011;64592;52.168;21.040;2023-08-24T15:19:38;6.95;;;3.40;;
75912;SDS011;64592;52.168;21.040;2023-08-24T15:24:41;3.45;;;2.60;;
75912;SDS011;64592;52.168;21.040;2023-08-24T15:29:43;3.55;;;2.85;;
75912;SDS011;64592;52.168;21.040;2023-08-24T15:34:45;6.50;;;3.30;;
75912;SDS011;64592;52.168;21.040;2023-08-24T15:39:48;3.40;;;3.10;;
75912;SDS011;64592;52.168;21.040;2023-08-24T15:44:50;4.05;;;3.15;;
75912;SDS011;64592;52.168;21.040;2023-08-24T15:49:51;4.85;;;2.60;;
75912;SDS011;64592;52.168;21.040;2023-08-24T15:54:54;5.78;;;3.20;;
75912;SDS011;64592;52.168;21.040;2023-08-24T15:59:56;3.47;;;2.75;;
75912;SDS011;64592;52.168;21.040;2023-08-24T16:04:58;8.23;;;3.42;;
75912;SDS011;64592;52.168;21.040;2023-08-24T16:10:01;6.18;;;2.90;;
75912;SDS011;64592;52.168;21.040;2023-08-24T16:15:05;5.28;;;2.50;;
75912;SDS011;64592;52.168;21.040;2023-08-24T16:20:08;5.57;;;2.72;;
75912;SDS011;64592;52.168;21.040;2023-08-24T16:25:12;6.70;;;2.83;;
75912;SDS011;64592;52.168;21.040;2023-08-24T16:30:14;6.13;;;2.53;;
75912;SDS011;64592;52.168;21.040;2023-08-24T16:35:16;4.50;;;2.67;;
75912;SDS011;64592;52.168;21.040;2023-08-24T16:40:19;5.13;;;2.65;;
75912;SDS011;64592;52.168;21.040;2023-08-24T16:45:20;3.33;;;2.55;;
75912;SDS011;64592;52.168;21.040;2023-08-24T16:50:23;5.68;;;2.90;;
75912;SDS011;64592;52.168;21.040;2023-08-24T16:55:26;5.63;;;3.03;;
75912;SDS011;64592;52.168;21.040;2023-08-24T17:00:28;4.43;;;2.78;;
75912;SDS011;64592;52.168;21.040;2023-08-24T17:05:31;3.97;;;2.50;;
75912;SDS011;64592;52.168;21.040;2023-08-24T17:10:34;8.40;;;3.58;;
75912;SDS011;64592;52.168;21.040;2023-08-24T17:15:38;3.95;;;2.70;;
75912;SDS011;64592;52.168;21.040;2023-08-24T17:20:39;4.75;;;3.10;;
75912;SDS011;64592;52.168;21.040;2023-08-24T17:25:44;4.82;;;2.60;;
75912;SDS011;64592;52.168;21.040;2023-08-24T17:30:46;6.80;;;2.78;;
75912;SDS011;64592;52.168;21.040;2023-08-24T17:35:48;5.22;;;3.03;;
75912;SDS011;64592;52.168;21.040;2023-08-24T17:40:51;4.45;;;3.10;;
75912;SDS011;64592;52.168;21.040;2023-08-24T17:45:57;8.07;;;3.47;;
75912;SDS011;64592;52.168;21.040;2023-08-24T17:50:59;7.82;;;3.90;;
75912;SDS011;64592;52.168;21.040;2023-08-24T17:56:03;6.38;;;2.97;;
75912;SDS011;64592;52.168;21.040;2023-08-24T18:01:05;5.25;;;2.83;;
75912;SDS011;64592;52.168;21.040;2023-08-24T18:06:07;6.47;;;2.75;;
75912;SDS011;64592;52.168;21.040;2023-08-24T18:11:10;4.97;;;3.00;;
75912;SDS011;64592;52.168;21.040;2023-08-24T18:16:12;5.90;;;3.05;;
75912;SDS011;64592;52.168;21.040;2023-08-24T18:21:14;4.60;;;3.17;;
75912;SDS011;64592;52.168;21.040;2023-08-24T18:26:17;7.72;;;3.30;;
75912;SDS011;64592;52.168;21.040;2023-08-24T18:31:18;4.03;;;2.80;;
75912;SDS011;64592;52.168;21.040;2023-08-24T18:36:21;10.90;;;4.47;;
75912;SDS011;64592;52.168;21.040;2023-08-24T18:41:24;5.80;;;3.63;;
75912;SDS011;64592;52.168;21.040;2023-08-24T18:46:25;5.47;;;3.38;;
75912;SDS011;64592;52.168;21.040;2023-08-24T18:51:27;5.50;;;3.50;;
75912;SDS011;64592;52.168;21.040;2023-08-24T18:56:30;6.10;;;3.17;;
75912;SDS011;64592;52.168;21.040;2023-08-24T19:01:32;4.78;;;3.20;;
75912;SDS011;64592;52.168;21.040;2023-08-24T19:06:34;7.13;;;3.00;;
75912;SDS011;64592;52.168;21.040;2023-08-24T19:11:37;6.85;;;3.95;;
75912;SDS011;64592;52.168;21.040;2023-08-24T19:16:39;7.15;;;3.35;;
75912;SDS011;64592;52.168;21.040;2023-08-24T19:21:41;7.05;;;3.75;;
75912;SDS011;64592;52.168;21.040;2023-08-24T19:26:44;8.32;;;4.20;;
75912;SDS011;64592;52.168;21.040;2023-08-24T19:31:46;10.20;;;5.60;;
75912;SDS011;64592;52.168;21.040;2023-08-24T19:36:47;7.63;;;3.95;;
75912;SDS011;64592;52.168;21.040;2023-08-24T19:41:50;12.98;;;5.32;;
75912;SDS011;64592;52.168;21.040;2023-08-24T19:46:52;9.98;;;4.90;;
75912;SDS011;64592;52.168;21.040;2023-08-24T19:51:54;6.20;;;3.95;;
75912;SDS011;64592;52.168;21.040;2023-08-24T19:56:57;8.80;;;5.03;;
75912;SDS011;64592;52.168;21.040;2023-08-24T20:01:59;7.30;;;4.22;;
75912;SDS011;64592;52.168;21.040;2023-08-24T20:07:01;6.30;;;4.03;;
75912;SDS011;64592;52.168;21.040;2023-08-24T20:12:06;10.05;;;4.55;;
75912;SDS011;64592;52.168;21.040;2023-08-24T20:17:08;7.03;;;4.18;;
75912;SDS011;64592;52.168;21.040;2023-08-24T20:22:10;6.68;;;4.07;;
75912;SDS011;64592;52.168;21.040;2023-08-24T20:27:13;7.53;;;4.50;;
75912;SDS011;64592;52.168;21.040;2023-08-24T20:32:15;5.82;;;4.72;;
75912;SDS011;64592;52.168;21.040;2023-08-24T20:37:17;8.88;;;4.78;;
75912;SDS011;64592;52.168;21.040;2023-08-24T20:42:21;9.30;;;4.63;;
75912;SDS011;64592;52.168;21.040;2023-08-24T20:47:23;15.77;;;5.90;;
75912;SDS011;64592;52.168;21.040;2023-08-24T20:52:25;6.53;;;4.47;;
75912;SDS011;64592;52.168;21.040;2023-08-24T20:57:28;8.73;;;5.32;;
75912;SDS011;64592;52.168;21.040;2023-08-24T21:02:29;10.25;;;4.38;;
75912;SDS011;64592;52.168;21.040;2023-08-24T21:07:33;7.10;;;4.85;;
75912;SDS011;64592;52.168;21.040;2023-08-24T21:12:36;7.82;;;4.95;;
75912;SDS011;64592;52.168;21.040;2023-08-24T21:17:38;15.60;;;5.65;;
75912;SDS011;64592;52.168;21.040;2023-08-24T21:22:39;7.95;;;5.03;;
75912;SDS011;64592;52.168;21.040;2023-08-24T21:27:42;13.05;;;5.68;;
75912;SDS011;64592;52.168;21.040;2023-08-24T21:32:44;7.78;;;5.40;;
75912;SDS011;64592;52.168;21.040;2023-08-24T21:37:46;11.18;;;5.30;;
75912;SDS011;64592;52.168;21.040;2023-08-24T21:42:49;10.32;;;4.38;;
75912;SDS011;64592;52.168;21.040;2023-08-24T21:47:51;8.32;;;4.88;;
75912;SDS011;64592;52.168;21.040;2023-08-24T21:52:52;11.93;;;5.05;;
75912;SDS011;64592;52.168;21.040;2023-08-24T21:57:55;7.63;;;4.80;;
75912;SDS011;64592;52.168;21.040;2023-08-24T22:02:57;6.88;;;5.05;;
75912;SDS011;64592;52.168;21.040;2023-08-24T22:07:59;10.27;;;5.05;;
75912;SDS011;64592;52.168;21.040;2023-08-24T22:13:02;12.90;;;5.35;;
75912;SDS011;64592;52.168;21.040;2023-08-24T22:18:04;10.63;;;5.38;;
75912;SDS011;64592;52.168;21.040;2023-08-24T22:23:06;9.00;;;5.25;;
75912;SDS011;64592;52.168;21.040;2023-08-24T22:28:09;11.18;;;5.50;;
75912;SDS011;64592;52.168;21.040;2023-08-24T22:33:11;8.35;;;4.82;;
75912;SDS011;64592;52.168;21.040;2023-08-24T22:38:13;12.70;;;4.97;;
75912;SDS011;64592;52.168;21.040;2023-08-24T22:43:17;12.18;;;5.82;;
75912;SDS011;64592;52.168;21.040;2023-08-24T22:48:20;8.88;;;4.78;;
75912;SDS011;64592;52.168;21.040;2023-08-24T22:53:22;7.20;;;5.53;;
75912;SDS011;64592;52.168;21.040;2023-08-24T22:58:26;10.45;;;5.55;;
75912;SDS011;64592;52.168;21.040;2023-08-24T23:03:27;7.25;;;4.95;;
75912;SDS011;64592;52.168;21.040;2023-08-24T23:08:29;7.03;;;5.30;;
75912;SDS011;64592;52.168;21.040;2023-08-24T23:13:32;8.98;;;5.50;;
75912;SDS011;64592;52.168;21.040;2023-08-24T23:18:34;7.88;;;5.68;;
75912;SDS011;64592;52.168;21.040;2023-08-24T23:23:36;10.15;;;5.88;;
75912;SDS011;64592;52.168;21.040;2023-08-24T23:28:39;9.70;;;6.53;;
75912;SDS011;64592;52.168;21.040;2023-08-24T23:33:41;13.70;;;6.22;;
75912;SDS011;64592;52.168;21.040;2023-08-24T23:38:42;9.20;;;6.97;;
75912;SDS011;64592;52.168;21.040;2023-08-24T23:43:46;7.75;;;6.93;;
75912;SDS011;64592;52.168;21.040;2023-08-24T23:48:47;10.65;;;7.63;;
75912;SDS011;64592;52.168;21.040;2023-08-24T23:53:49;14.48;;;6.95;;
75912;SDS011;64592;52.168;21.040;2023-08-24T23:58:52;8.80;;;6.75;;
